Time;durP1;ratioP1;P1;durP2;ratioP2;P2;SDS_P1;SDS_P2;PMS_P1;PMS_P2;Temp;Humidity;BMP_temperature;BMP_pressure;BME280_temperature;BME280_humidity;BME280_pressure;Samples;Min_cycle;Max_cycle;Signal;HPM_P1;HPM_P2
2022/04/26 03:37:20;;;;;;;7.68;4.32;;;;;;;6.97;81.26;101526.91;5002937;28;20063;-81
2022/04/26 03:39:46;;;;;;;7.70;4.68;;;;;;;6.96;81.15;101527.78;5014155;28;20408;-80
2022/04/26 03:42:12;;;;;;;10.60;5.00;;;;;;;6.97;81.11;101527.78;5031804;28;20056;-81
2022/04/26 03:44:37;;;;;;;8.05;4.53;;;;;;;6.96;81.35;101527.78;5031680;28;20040;-81
2022/04/26 03:47:03;;;;;;;12.10;4.68;;;;;;;6.95;81.56;101532.19;4981519;28;20409;-81
2022/04/26 03:49:29;;;;;;;9.15;5.20;;;;;;;6.95;82.03;101536.56;5013637;28;20045;-81
2022/04/26 03:51:55;;;;;;;7.57;4.60;;;;;;;6.95;82.01;101539.19;5013683;28;20025;-81
2022/04/26 03:54:22;;;;;;;11.13;4.97;;;;;;;6.93;82.36;101536.56;5030077;28;20430;-81
2022/04/26 03:56:48;;;;;;;8.05;4.88;;;;;;;6.94;82.03;101540.94;5032924;28;20049;-81
2022/04/26 03:59:14;;;;;;;10.00;5.05;;;;;;;6.94;82.17;101542.69;5048789;28;20025;-81
2022/04/26 04:01:40;;;;;;;12.90;4.93;;;;;;;6.95;82.00;101536.56;5045164;28;20041;-81
2022/04/26 04:04:05;;;;;;;7.20;5.10;;;;;;;6.95;82.47;101536.56;5013416;28;20029;-81
2022/04/26 04:06:31;;;;;;;9.55;4.45;;;;;;;6.93;82.06;101533.94;4997265;28;20046;-81
2022/04/26 04:08:56;;;;;;;8.35;4.80;;;;;;;6.93;82.53;101538.31;4996972;28;20060;-81
2022/04/26 04:11:22;;;;;;;12.02;4.82;;;;;;;6.94;82.44;101547.97;4996996;28;20109;-81
2022/04/26 04:13:47;;;;;;;10.52;5.15;;;;;;;6.94;81.92;101554.09;5002355;28;20036;-81
2022/04/26 04:16:13;;;;;;;11.40;5.55;;;;;;;6.92;82.38;101553.22;5016801;28;20033;-81
2022/04/26 04:21:23;;;;;;;10.25;4.97;;;;;;;6.93;82.72;101560.25;5051085;28;20485;-81
2022/04/26 04:23:48;;;;;;;6.97;4.78;;;;;;;6.92;82.80;101555.84;4996363;28;20036;-81
2022/04/26 04:26:13;;;;;;;10.10;4.90;;;;;;;6.93;82.11;101562.03;5013335;28;20486;-81
2022/04/26 04:28:39;;;;;;;8.85;5.28;;;;;;;6.96;82.28;101564.66;4996583;28;20039;-81
2022/04/26 04:31:05;;;;;;;9.15;5.13;;;;;;;6.94;82.47;101559.38;5012942;28;20049;-81
2022/04/26 04:33:30;;;;;;;12.20;5.15;;;;;;;6.96;82.58;101562.91;4996726;28;20542;-81
2022/04/26 04:35:56;;;;;;;9.38;5.45;;;;;;;6.97;83.10;101569.91;4996993;28;20442;-81
2022/04/26 04:38:22;;;;;;;9.02;5.10;;;;;;;6.98;82.49;101568.19;5013171;28;20034;-81
2022/04/26 04:40:47;;;;;;;8.85;5.10;;;;;;;6.98;82.91;101574.31;5013218;28;20051;-81
2022/04/26 04:43:13;;;;;;;8.30;5.25;;;;;;;6.97;82.95;101580.44;4997064;28;20211;-81
2022/04/26 04:45:40;;;;;;;9.05;4.93;;;;;;;6.96;82.73;101578.69;5013290;28;20046;-81
2022/04/26 04:48:06;;;;;;;15.55;5.40;;;;;;;6.94;83.06;101569.91;5012990;28;20022;-81
2022/04/26 04:50:35;;;;;;;11.32;5.15;;;;;;;6.94;82.87;101585.72;5013070;28;20426;-81
2022/04/26 04:53:01;;;;;;;9.10;5.43;;;;;;;6.94;83.14;101583.06;4996613;28;20040;-81
2022/04/26 04:55:27;;;;;;;14.65;5.25;;;;;;;6.94;83.26;101590.97;5017124;28;20040;-80
2022/04/26 04:57:52;;;;;;;10.90;6.22;;;;;;;6.94;83.69;101596.25;5016030;28;20551;-81
2022/04/26 05:00:18;;;;;;;10.18;5.18;;;;;;;6.94;83.51;101596.25;5033109;28;20029;-80
2022/04/26 05:02:43;;;;;;;9.18;5.93;;;;;;;6.95;83.21;101600.66;5035284;28;20018;-81
2022/04/26 05:05:09;;;;;;;12.48;5.03;;;;;;;6.96;83.43;101606.78;4980574;28;20412;-81
2022/04/26 05:07:38;;;;;;;6.88;5.03;;;;;;;6.97;83.37;101611.19;4996356;28;20030;-81
2022/04/26 05:10:06;;;;;;;9.15;5.38;;;;;;;6.98;82.65;101613.81;4996845;28;20046;-81
2022/04/26 05:12:32;;;;;;;9.32;4.97;;;;;;;6.98;83.11;101615.59;5032865;28;20477;-81
2022/04/26 05:14:58;;;;;;;14.00;5.80;;;;;;;6.98;82.86;101619.09;4999469;28;20170;-81
2022/04/26 05:17:23;;;;;;;7.20;4.93;;;;;;;6.99;82.94;101622.59;5020012;28;20104;-81
2022/04/26 05:19:49;;;;;;;8.55;5.38;;;;;;;7.00;83.68;101622.63;5020013;28;20149;-81
2022/04/26 05:22:14;;;;;;;12.52;5.97;;;;;;;7.01;83.10;101626.13;5036392;28;20025;-81
2022/04/26 05:24:53;;;;;;;8.48;5.25;;;;;;;6.99;83.72;101620.84;5019992;28;20094;-81
2022/04/26 05:27:26;;;;;;;12.30;5.68;;;;;;;7.01;83.47;101624.38;5005126;28;20052;-81
2022/04/26 05:29:52;;;;;;;10.30;5.40;;;;;;;7.05;83.00;101628.78;5035647;28;20049;-81
2022/04/26 05:32:25;;;;;;;11.23;6.30;;;;;;;7.06;83.65;101635.81;5019832;28;20106;-81
2022/04/26 05:34:56;;;;;;;11.32;5.65;;;;;;;7.07;83.90;101634.03;5054300;28;20033;-81
2022/04/26 05:37:22;;;;;;;14.63;5.70;;;;;;;7.08;83.97;101630.56;5056603;28;20055;-84
2022/04/26 05:39:47;;;;;;;9.65;5.85;;;;;;;7.11;83.89;101638.47;5039250;28;20366;-84
2022/04/26 05:42:13;;;;;;;15.48;6.10;;;;;;;7.10;84.37;101634.09;5055618;28;20025;-84
2022/04/26 05:44:39;;;;;;;8.32;5.43;;;;;;;7.13;84.15;101634.09;5037749;28;20405;-85
2022/04/26 05:47:07;;;;;;;8.77;5.70;;;;;;;7.13;83.88;101635.84;5005188;28;20040;-85
2022/04/26 05:49:33;;;;;;;15.05;6.03;;;;;;;7.13;84.13;101642.00;5004441;28;20485;-85
2022/04/26 05:51:59;;;;;;;11.15;6.00;;;;;;;7.16;84.14;101646.41;5020956;28;20139;-85
2022/04/26 05:54:24;;;;;;;14.00;6.80;;;;;;;7.15;84.33;101635.00;5019795;28;20025;-84
2022/04/26 05:56:52;;;;;;;10.63;5.82;;;;;;;7.21;83.94;101647.31;5001332;28;20072;-85
2022/04/26 05:59:18;;;;;;;10.23;6.22;;;;;;;7.22;84.34;101643.78;5036087;28;20029;-86
2022/04/26 06:01:44;;;;;;;14.73;6.85;;;;;;;7.22;84.66;101652.59;5012330;28;20132;-84
2022/04/26 06:04:10;;;;;;;9.25;6.32;;;;;;;7.25;84.32;101642.06;5016239;28;20113;-85
2022/04/26 06:06:35;;;;;;;11.23;6.55;;;;;;;7.26;84.84;101643.81;5000028;28;20069;-85
2022/04/26 06:09:02;;;;;;;15.10;6.97;;;;;;;7.29;84.47;101657.00;4999473;28;20440;-85
2022/04/26 06:11:27;;;;;;;12.27;7.13;;;;;;;7.29;84.46;101654.38;5016106;28;20135;-86
2022/04/26 06:13:53;;;;;;;15.77;6.80;;;;;;;7.29;83.87;101656.09;5006209;28;20128;-85
2022/04/26 06:16:19;;;;;;;9.23;6.53;;;;;;;7.33;84.58;101660.53;5002831;28;20047;-85
2022/04/26 06:18:45;;;;;;;17.60;7.75;;;;;;;7.33;83.73;101658.78;5035742;28;20029;-85
2022/04/26 06:21:10;;;;;;;13.00;7.43;;;;;;;7.35;84.61;101664.06;5035563;28;20037;-87
2022/04/26 06:23:36;;;;;;;13.45;7.28;;;;;;;7.35;84.14;101674.59;5034814;28;20029;-85
2022/04/26 06:26:02;;;;;;;13.52;7.07;;;;;;;7.39;84.07;101670.22;5035574;28;20029;-85
2022/04/26 06:28:28;;;;;;;14.80;7.47;;;;;;;7.43;83.57;101672.00;5035664;28;20033;-85
2022/04/26 06:30:55;;;;;;;17.55;7.82;;;;;;;7.46;84.28;101672.00;5051636;28;20041;-85
2022/04/26 06:33:20;;;;;;;11.48;7.50;;;;;;;7.50;84.01;101676.44;5018916;28;20048;-86
2022/04/26 06:35:46;;;;;;;15.90;7.97;;;;;;;7.53;83.76;101674.66;5051861;28;20112;-85
2022/04/26 06:38:11;;;;;;;14.68;8.18;;;;;;;7.60;84.16;101678.22;5018510;28;20080;-85
2022/04/26 06:40:37;;;;;;;16.55;7.88;;;;;;;7.65;83.23;101680.88;5018637;28;20041;-86
2022/04/26 06:43:03;;;;;;;12.20;8.13;;;;;;;7.69;83.30;101685.25;5018605;28;20028;-85
2022/04/26 06:45:28;;;;;;;15.00;8.82;;;;;;;7.75;83.08;101687.94;5035384;28;20068;-85
2022/04/26 06:47:54;;;;;;;15.30;7.72;;;;;;;7.81;82.98;101693.22;5034806;28;20410;-86
2022/04/26 06:50:21;;;;;;;14.57;8.10;;;;;;;7.86;82.44;101698.50;5018798;28;20033;-85
2022/04/26 06:52:47;;;;;;;18.88;8.18;;;;;;;7.90;81.69;101687.97;5035035;28;20028;-87
2022/04/26 06:55:13;;;;;;;18.30;8.02;;;;;;;7.96;81.24;101690.66;4998045;28;20110;-86
2022/04/26 06:57:40;;;;;;;16.17;9.18;;;;;;;8.03;80.89;101688.88;5032723;28;20043;-86
2022/04/26 07:00:07;;;;;;;12.07;7.78;;;;;;;8.10;81.00;101692.41;5035015;28;20033;-87
2022/04/26 07:02:33;;;;;;;13.27;8.05;;;;;;;8.15;79.80;101699.47;4988212;28;20043;-86
2022/04/26 07:04:59;;;;;;;18.73;8.20;;;;;;;8.25;80.80;101703.00;4998620;28;20041;-86
2022/04/26 07:07:25;;;;;;;15.70;7.88;;;;;;;8.32;80.55;101690.69;4966295;28;20091;-86
2022/04/26 07:09:50;;;;;;;10.18;7.07;;;;;;;8.41;79.77;101696.03;5014647;28;20116;-86
2022/04/26 07:12:15;;;;;;;12.70;7.43;;;;;;;8.48;79.10;101702.16;4998742;28;20035;-86
2022/04/26 07:14:42;;;;;;;9.57;7.30;;;;;;;8.54;77.78;101702.19;5012071;28;20033;-87
2022/04/26 07:17:08;;;;;;;16.88;7.85;;;;;;;8.65;78.18;101707.47;5034860;28;20094;-87
2022/04/26 07:19:35;;;;;;;12.35;6.82;;;;;;;8.75;77.36;101709.22;5052399;28;20029;-86
2022/04/26 07:22:03;;;;;;;11.63;6.90;;;;;;;8.81;76.53;101710.09;5017983;28;20475;-86
2022/04/26 07:24:30;;;;;;;13.88;7.32;;;;;;;8.87;76.86;101711.84;5003621;28;20107;-87
2022/04/26 07:26:55;;;;;;;15.80;6.70;;;;;;;8.92;75.55;101710.06;4982398;28;20057;-87
2022/04/26 07:29:21;;;;;;;11.07;6.53;;;;;;;8.94;75.47;101718.88;5014627;28;20076;-87
2022/04/26 07:31:47;;;;;;;24.95;6.88;;;;;;;8.93;75.64;101714.50;4998230;28;20080;-87
2022/04/26 07:34:21;;;;;;;14.27;7.10;;;;;;;8.95;75.59;101722.41;4981187;28;20048;-86
2022/04/26 07:36:52;;;;;;;12.07;6.35;;;;;;;8.97;75.71;101726.81;4999311;28;20168;-86
2022/04/26 07:39:18;;;;;;;13.10;7.18;;;;;;;8.99;75.60;101724.16;5030597;28;20353;-86
2022/04/26 07:41:45;;;;;;;15.02;7.38;;;;;;;9.02;75.05;101725.03;4998232;28;20029;-85
2022/04/26 07:44:11;;;;;;;10.63;6.70;;;;;;;9.06;74.81;101722.41;4997756;28;20473;-86
2022/04/26 07:46:38;;;;;;;16.33;6.85;;;;;;;9.13;74.83;101729.44;4998042;28;20040;-87
2022/04/26 07:49:05;;;;;;;11.43;5.88;;;;;;;9.14;73.44;101733.84;5014266;28;20032;-87
2022/04/26 07:51:32;;;;;;;8.85;6.05;;;;;;;9.14;73.26;101733.84;5014605;28;20311;-86
2022/04/26 07:53:58;;;;;;;12.82;6.32;;;;;;;9.14;73.56;101729.44;5030591;28;20038;-87
2022/04/26 07:56:23;;;;;;;15.98;6.50;;;;;;;9.23;74.12;101732.06;5010317;28;20479;-86
2022/04/26 07:58:49;;;;;;;14.48;6.97;;;;;;;9.31;74.48;101736.44;5051463;28;20077;-86
2022/04/26 08:01:14;;;;;;;15.82;6.88;;;;;;;9.41;74.46;101740.81;4997591;28;20041;-86
2022/04/26 08:03:40;;;;;;;12.23;6.65;;;;;;;9.47;74.05;101739.06;4997733;28;20052;-88
2022/04/26 08:06:05;;;;;;;13.65;6.50;;;;;;;9.49;73.44;101739.03;4997572;28;20029;-86
2022/04/26 08:08:31;;;;;;;14.40;6.65;;;;;;;9.55;73.36;101741.69;5013633;28;20082;-86
2022/04/26 08:10:58;;;;;;;10.73;6.05;;;;;;;9.57;72.49;101747.84;5013871;28;20033;-87
2022/04/26 08:13:23;;;;;;;19.17;6.63;;;;;;;9.60;73.26;101744.31;5016867;28;20036;-86
2022/04/26 08:15:49;;;;;;;13.77;6.68;;;;;;;9.67;73.23;101760.16;5000924;28;20119;-86
2022/04/26 08:18:15;;;;;;;17.17;6.80;;;;;;;9.73;72.40;101753.06;5033666;28;20421;-86
2022/04/26 08:20:41;;;;;;;14.20;6.32;;;;;;;9.79;71.71;101769.81;5033522;28;20025;-86
2022/04/26 08:23:07;;;;;;;14.50;5.70;;;;;;;9.81;71.85;101760.06;5033130;28;20115;-86
2022/04/26 08:28:20;;;;;;;17.35;5.65;;;;;;;9.98;72.43;101775.00;5035788;28;20041;-86
2022/04/26 08:30:46;;;;;;;14.43;5.90;;;;;;;10.01;70.81;101764.41;5033317;28;20112;-85
2022/04/26 08:33:12;;;;;;;12.65;5.43;;;;;;;10.06;70.57;101773.19;5033085;28;20033;-86
2022/04/26 08:35:38;;;;;;;13.23;5.60;;;;;;;10.11;70.05;101769.66;5033649;28;20468;-86
2022/04/26 08:38:03;;;;;;;9.55;5.00;;;;;;;10.11;69.74;101764.38;5000394;28;20623;-86
2022/04/26 08:40:29;;;;;;;11.07;4.57;;;;;;;10.20;68.99;101773.16;5033238;28;20388;-85
2022/04/26 08:42:55;;;;;;;9.90;4.63;;;;;;;10.27;68.30;101782.81;5016897;28;20036;-85
2022/04/26 08:45:21;;;;;;;12.32;4.53;;;;;;;10.42;68.83;101773.94;5017139;28;20040;-86
2022/04/26 08:53:22;;;;;;;10.20;4.50;;;;;;;11.07;66.44;101775.19;5039960;28;20063;-85
2022/04/26 08:55:50;;;;;;;11.43;4.00;;;;;;;11.17;64.87;101774.19;5032165;28;20025;-87
2022/04/26 08:58:18;;;;;;;8.45;4.25;;;;;;;11.10;64.87;101767.22;5029673;28;20028;-86
2022/04/26 09:01:09;;;;;;;11.85;5.70;;;;;;;11.14;65.50;101781.31;5037386;28;20037;-87
2022/04/26 09:03:41;;;;;;;13.77;5.47;;;;;;;11.32;65.12;101782.91;5000843;28;20041;-86
2022/04/26 09:06:13;;;;;;;12.30;4.85;;;;;;;11.49;62.63;101785.41;5035405;28;20041;-87
2022/04/26 09:08:40;;;;;;;8.60;4.13;;;;;;;11.63;62.95;101780.81;5016954;28;20088;-87
2022/04/26 09:11:39;;;;;;;8.65;4.57;;;;;;;11.85;63.60;101792.06;5000777;28;20033;-87
2022/04/26 09:14:08;;;;;;;7.97;3.67;;;;;;;11.86;59.05;101791.16;4993890;28;20053;-87
2022/04/26 09:16:35;;;;;;;11.57;3.58;;;;;;;11.91;59.87;101796.44;5020309;28;20024;-87
2022/04/26 09:19:06;;;;;;;9.90;3.80;;;;;;;12.00;58.67;101791.03;5036821;28;20029;-87
2022/04/26 09:21:33;;;;;;;9.23;3.72;;;;;;;12.09;57.85;101798.91;5054958;28;20056;-87
2022/04/26 09:24:04;;;;;;;13.05;3.20;;;;;;;12.20;57.30;101790.78;5020044;28;20036;-87
2022/04/26 09:26:35;;;;;;;10.00;3.85;;;;;;;12.27;55.99;101795.13;5036534;28;20388;-87
2022/04/26 09:29:01;;;;;;;7.72;3.53;;;;;;;12.40;56.50;101796.69;5036040;28;20540;-86
2022/04/26 09:31:30;;;;;;;8.85;3.67;;;;;;;12.55;55.47;101794.72;5020159;28;20082;-87
2022/04/26 09:33:57;;;;;;;8.18;3.55;;;;;;;12.65;55.08;101799.84;5003564;28;20071;-87
2022/04/26 09:36:28;;;;;;;7.22;3.38;;;;;;;12.86;55.78;101795.13;5036851;28;20033;-87
2022/04/26 09:38:59;;;;;;;8.27;3.70;;;;;;;12.98;54.91;101800.25;5036236;28;20033;-88
2022/04/26 09:41:29;;;;;;;9.52;4.00;;;;;;;13.14;54.17;101808.84;5020042;28;20048;-87
2022/04/26 09:44:09;;;;;;;12.35;3.85;;;;;;;13.26;55.64;101810.41;5036082;28;20047;-88
2022/04/26 09:46:41;;;;;;;8.82;3.45;;;;;;;13.43;55.58;101819.00;5052736;28;20406;-88
2022/04/26 09:49:11;;;;;;;9.20;3.40;;;;;;;13.51;54.40;101811.75;5035876;28;20063;-87
2022/04/26 09:51:37;;;;;;;7.93;3.30;;;;;;;13.54;53.23;101816.13;5036149;28;20579;-87
2022/04/26 09:54:04;;;;;;;10.45;3.92;;;;;;;13.60;54.11;101818.69;5036059;28;20464;-87
2022/04/26 09:56:31;;;;;;;9.18;3.90;;;;;;;13.71;53.07;101819.34;5017521;28;20044;-87
2022/04/26 09:58:59;;;;;;;7.75;3.58;;;;;;;13.88;52.71;101824.34;4967855;28;20323;-88
2022/04/26 10:01:29;;;;;;;8.57;4.00;;;;;;;14.10;53.63;101819.47;5039367;28;20036;-88
2022/04/26 10:04:06;;;;;;;9.80;3.40;;;;;;;14.25;51.74;101822.72;5035719;28;20037;-88
2022/04/26 10:06:36;;;;;;;12.98;4.15;;;;;;;14.38;50.76;101830.41;5035977;28;20500;-88
2022/04/26 10:09:05;;;;;;;9.77;3.70;;;;;;;14.46;49.47;101830.22;5053542;28;20130;-87
2022/04/26 10:11:31;;;;;;;6.75;3.47;;;;;;;14.55;50.25;101830.06;5019340;28;20125;-88
2022/04/26 10:13:59;;;;;;;6.57;3.42;;;;;;;14.52;49.88;101823.91;4994077;28;20144;-88
2022/04/26 10:16:25;;;;;;;8.20;3.30;;;;;;;14.37;48.00;101833.13;4999517;28;20025;-88
2022/04/26 10:18:51;;;;;;;8.85;3.63;;;;;;;14.27;48.84;101836.88;5015616;28;20052;-88
2022/04/26 10:21:22;;;;;;;6.88;3.70;;;;;;;14.32;49.77;101835.88;4983575;28;20029;-87
2022/04/26 10:23:51;;;;;;;8.95;3.30;;;;;;;14.36;49.88;101831.34;5015204;28;20037;-88
2022/04/26 10:26:23;;;;;;;6.80;3.15;;;;;;;14.33;47.69;101845.59;5032140;28;20538;-87
2022/04/26 10:28:51;;;;;;;6.53;3.50;;;;;;;14.09;47.50;101854.97;5015515;28;20065;-87
2022/04/26 10:31:18;;;;;;;9.90;3.72;;;;;;;13.90;47.88;101851.84;5015389;28;20042;-86
2022/04/26 10:33:45;;;;;;;6.47;3.22;;;;;;;13.91;48.10;101845.59;5015820;28;20034;-87
2022/04/26 10:36:37;;;;;;;8.40;3.85;;;;;;;14.08;47.59;101858.56;5015560;28;20065;-87
2022/04/26 10:39:06;;;;;;;8.25;3.35;;;;;;;14.18;47.15;101859.25;5031755;28;20111;-88
2022/04/26 10:41:34;;;;;;;6.57;4.10;;;;;;;14.18;46.22;101841.47;5031935;28;20128;-87
2022/04/26 10:44:19;;;;;;;7.75;3.45;;;;;;;14.20;47.88;101850.31;5015388;28;20041;-87
2022/04/26 10:47:00;;;;;;;5.80;3.25;;;;;;;14.15;47.24;101852.22;5015552;28;20101;-87
2022/04/26 10:49:32;;;;;;;8.63;3.60;;;;;;;14.24;47.24;101859.13;5015210;28;20033;-88
2022/04/26 10:52:23;;;;;;;8.10;3.60;;;;;;;14.43;47.80;101858.75;5015535;28;20111;-87
2022/04/26 10:54:51;;;;;;;7.90;3.60;;;;;;;14.65;45.15;101854.72;5014655;28;20052;-88
2022/04/26 10:57:19;;;;;;;9.13;4.10;;;;;;;14.82;45.27;101852.53;5028116;28;20033;-88
2022/04/26 10:59:54;;;;;;;8.98;3.70;;;;;;;15.10;46.78;101853.69;5015259;28;20045;-88
2022/04/26 11:02:22;;;;;;;9.70;3.63;;;;;;;15.34;45.71;101855.72;5031464;28;20033;-88
2022/04/26 11:04:56;;;;;;;5.85;3.63;;;;;;;15.52;46.55;101854.38;5015368;28;20025;-88
2022/04/26 11:07:25;;;;;;;9.82;4.03;;;;;;;15.58;45.26;101842.66;5032905;28;20034;-88
2022/04/26 11:09:53;;;;;;;6.95;3.80;;;;;;;15.77;44.59;101856.41;5014026;28;20057;-88
2022/04/26 11:12:21;;;;;;;7.07;4.03;;;;;;;16.06;44.40;101861.81;5015238;28;20513;-88
2022/04/26 11:14:49;;;;;;;6.75;4.05;;;;;;;16.04;42.01;101866.34;5019168;28;20026;-88
2022/04/26 11:17:21;;;;;;;10.68;3.78;;;;;;;16.07;44.23;101860.03;4998545;28;20120;-88
2022/04/26 11:19:58;;;;;;;7.30;3.45;;;;;;;16.06;42.67;101860.94;4998888;28;20034;-88
2022/04/26 11:22:25;;;;;;;6.75;3.67;;;;;;;16.14;42.12;101872.28;5014799;28;20442;-88
2022/04/26 11:28:21;;;;;;;7.80;4.15;;;;;;;16.48;43.88;101861.50;5030996;28;20091;-88
2022/04/26 11:30:56;;;;;;;10.45;4.00;;;;;;;16.55;41.24;101863.06;4996439;28;20132;-88
2022/04/26 11:33:25;;;;;;;6.60;3.83;;;;;;;16.71;40.93;101857.22;4998648;28;20029;-88
2022/04/26 11:35:56;;;;;;;9.38;3.70;;;;;;;17.01;40.63;101857.22;4998466;28;20041;-88
2022/04/26 11:38:22;;;;;;;5.97;3.38;;;;;;;17.29;42.00;101849.16;4998672;28;20069;-88
2022/04/26 11:40:49;;;;;;;6.78;3.63;;;;;;;17.52;40.14;101861.75;4981988;28;20124;-88
2022/04/26 11:43:17;;;;;;;6.15;3.28;;;;;;;17.63;37.78;101860.44;5014496;28;20045;-88
2022/04/26 11:45:45;;;;;;;7.18;3.28;;;;;;;17.60;35.59;101857.84;5014360;28;20032;-89
2022/04/26 11:48:16;;;;;;;9.60;3.20;;;;;;;17.77;37.38;101864.44;5014199;28;20048;-88
2022/04/26 11:50:43;;;;;;;;;;;;;;;17.82;40.36;101868.72;5014621;28;20033;-88
2022/04/26 11:53:17;;;;;;;5.55;3.35;;;;;;;17.77;36.88;101870.66;5013834;28;20273;-88
2022/04/26 11:56:04;;;;;;;6.80;3.22;;;;;;;17.92;36.41;101868.41;5020349;28;20036;-88
2022/04/26 11:58:29;;;;;;;7.57;3.20;;;;;;;17.98;34.74;101873.56;5033002;28;20456;-88
2022/04/26 12:01:10;;;;;;;5.75;3.00;;;;;;;18.14;36.59;101887.25;5033821;28;20103;-88
2022/04/26 12:03:41;;;;;;;;;;;;;;;18.36;38.94;101866.75;5017486;28;20174;-88
2022/04/26 12:06:08;;;;;;;;;;;;;;;18.40;39.49;101867.53;5034474;28;19913;-88
2022/04/26 12:08:40;;;;;;;6.50;2.90;;;;;;;18.42;34.06;101871.00;5017053;28;20005;-88
2022/04/26 12:11:35;;;;;;;6.53;3.13;;;;;;;18.25;36.08;101885.06;5033603;28;20048;-88
2022/04/26 12:14:08;;;;;;;7.10;3.00;;;;;;;18.18;34.86;101876.38;5032573;28;20041;-88
2022/04/26 12:16:41;;;;;;;5.88;2.70;;;;;;;18.55;35.08;101876.78;5033494;28;20052;-87
2022/04/26 12:19:06;;;;;;;10.55;3.38;;;;;;;18.69;33.49;101867.25;5017067;28;20037;-88
2022/04/26 12:21:52;;;;;;;7.95;3.35;;;;;;;18.58;33.23;101872.16;5016932;28;20093;-88
2022/04/26 12:24:22;;;;;;;4.25;3.22;;;;;;;18.54;35.14;101869.66;5016621;28;20132;-87
2022/04/26 12:26:50;;;;;;;7.38;3.55;;;;;;;18.83;34.19;101864.03;5033841;28;20105;-87
2022/04/26 12:29:15;;;;;;;11.38;3.50;;;;;;;19.19;35.13;101873.34;5051172;28;20085;-87
2022/04/26 12:31:47;;;;;;;7.63;3.20;;;;;;;19.38;33.34;101868.94;5000722;28;20052;-87
2022/04/26 12:34:19;;;;;;;7.65;3.50;;;;;;;19.32;32.44;101874.59;5033030;28;20045;-88
2022/04/26 12:36:49;;;;;;;5.57;3.40;;;;;;;19.41;33.20;101868.84;5017212;28;20075;-88
2022/04/26 12:39:14;;;;;;;6.93;3.58;;;;;;;19.42;33.74;101869.72;5032891;28;20430;-88
2022/04/26 12:41:51;;;;;;;7.10;3.33;;;;;;;19.43;35.32;101864.25;5016853;28;20114;-87
2022/04/26 12:44:18;;;;;;;9.27;3.45;;;;;;;19.49;34.21;101868.50;5016621;28;20376;-88
2022/04/26 12:50:31;;;;;;;8.68;3.50;;;;;;;19.86;36.39;101865.13;5036633;28;20500;-87
2022/04/26 12:53:19;;;;;;;12.55;3.60;;;;;;;19.97;34.33;101857.41;4953609;28;20117;-87
2022/04/26 12:55:45;;;;;;;9.00;3.83;;;;;;;20.03;33.11;101864.38;4943464;29;20038;-87
2022/04/26 12:58:13;;;;;;;5.72;3.22;;;;;;;20.44;34.12;101864.25;4976001;28;20038;-86
2022/04/26 13:00:41;;;;;;;6.18;3.10;;;;;;;20.63;32.18;101852.66;5029841;28;20048;-87
2022/04/26 13:03:08;;;;;;;7.72;3.00;;;;;;;20.67;32.52;101865.00;4996880;28;20397;-87
2022/04/26 13:05:36;;;;;;;6.30;3.50;;;;;;;20.38;32.46;101872.63;4997043;28;20033;-87
2022/04/26 13:08:02;;;;;;;6.28;3.38;;;;;;;20.49;33.48;101858.66;5030852;28;20032;-87
2022/04/26 13:10:27;;;;;;;5.57;3.58;;;;;;;20.59;32.42;101865.38;4980621;28;20389;-86
2022/04/26 13:12:53;;;;;;;5.22;3.13;;;;;;;20.50;31.89;101863.09;4980978;28;20095;-87
2022/04/26 13:15:23;;;;;;;5.95;3.10;;;;;;;20.54;32.86;101865.56;5017044;28;20389;-87
2022/04/26 13:17:49;;;;;;;6.50;2.92;;;;;;;20.95;34.18;101868.13;5033034;28;20373;-86
2022/04/26 13:20:14;;;;;;;9.05;3.30;;;;;;;20.92;30.36;101867.38;5016648;28;20093;-86
2022/04/26 13:22:41;;;;;;;14.38;3.55;;;;;;;20.88;31.70;101866.66;5016334;28;20040;-87
2022/04/26 13:25:07;;;;;;;7.78;2.90;;;;;;;21.14;32.41;101862.69;5016421;28;20043;-87
2022/04/26 13:27:35;;;;;;;6.03;3.03;;;;;;;21.10;30.58;101869.19;4999929;28;20036;-87
2022/04/26 13:30:02;;;;;;;6.07;3.22;;;;;;;20.97;31.02;101860.84;5016211;28;20123;-87
2022/04/26 13:32:29;;;;;;;8.13;3.22;;;;;;;20.53;31.10;101866.53;5033334;28;20091;-88
2022/04/26 13:34:56;;;;;;;8.68;3.25;;;;;;;20.44;31.15;101860.69;5004194;28;20455;-88
2022/04/26 13:37:21;;;;;;;4.93;3.10;;;;;;;20.56;32.14;101865.53;5020115;28;20029;-87
2022/04/26 13:39:49;;;;;;;11.75;3.08;;;;;;;20.05;30.91;101859.75;5036379;28;20029;-87
2022/04/26 13:42:15;;;;;;;7.32;3.35;;;;;;;19.89;31.99;101859.59;5036708;28;20032;-87
2022/04/26 13:44:41;;;;;;;8.52;2.83;;;;;;;20.38;33.12;101867.25;5003480;28;20445;-86
2022/04/26 13:47:08;;;;;;;8.38;3.50;;;;;;;20.74;30.78;101872.72;5020154;28;20029;-87
2022/04/26 13:49:39;;;;;;;10.80;3.20;;;;;;;21.19;31.17;101865.13;5019453;28;20455;-87
2022/04/26 13:52:07;;;;;;;5.50;2.90;;;;;;;21.55;30.51;101864.25;5036028;28;20110;-86
2022/04/26 13:54:35;;;;;;;8.45;3.00;;;;;;;21.78;29.96;101872.00;5035888;28;20021;-86
2022/04/26 13:57:01;;;;;;;6.53;3.25;;;;;;;21.52;28.89;101869.81;5020815;28;20454;-87
2022/04/26 13:59:27;;;;;;;6.47;3.10;;;;;;;21.77;29.96;101864.03;5016090;28;20075;-86
2022/04/26 14:01:53;;;;;;;5.93;2.80;;;;;;;22.29;29.60;101866.63;5009590;28;20033;-85
2022/04/26 14:04:20;;;;;;;11.65;3.22;;;;;;;22.19;28.39;101871.63;5019667;28;20061;-87
2022/04/26 14:06:46;;;;;;;7.32;2.80;;;;;;;22.01;28.89;101862.72;5019524;28;20037;-87
2022/04/26 14:09:13;;;;;;;12.40;3.00;;;;;;;22.39;29.33;101859.78;5035694;28;20356;-86
2022/04/26 14:11:38;;;;;;;5.88;2.75;;;;;;;22.57;29.25;101870.50;5036037;28;20040;-85
2022/04/26 14:22:16;;;;;;;4.72;2.75;;;;;;;22.02;27.98;101879.75;5001834;28;20523;-88
2022/04/26 14:24:43;;;;;;;6.43;2.80;;;;;;;21.64;28.11;101878.13;5012087;28;20057;-88
2022/04/26 14:27:09;;;;;;;5.43;2.90;;;;;;;21.63;28.68;101884.47;4999505;28;20315;-87
2022/04/26 14:29:35;;;;;;;4.68;2.53;;;;;;;21.51;28.90;101877.00;5015348;28;20474;-87
2022/04/26 14:32:00;;;;;;;5.55;2.60;;;;;;;21.23;27.93;101882.91;4999030;28;20215;-86
2022/04/26 14:34:26;;;;;;;4.63;2.60;;;;;;;21.10;29.12;101889.84;4999166;28;20053;-87
2022/04/26 14:36:52;;;;;;;6.32;2.85;;;;;;;20.78;28.89;101886.91;5015742;28;20103;-86
2022/04/26 14:39:17;;;;;;;7.20;2.90;;;;;;;20.51;29.36;101889.94;5015530;28;20036;-87
2022/04/26 14:41:43;;;;;;;5.90;2.90;;;;;;;20.10;30.38;101881.06;4983035;28;20043;-87
2022/04/26 14:44:09;;;;;;;5.38;2.72;;;;;;;19.91;29.72;101894.47;4998961;28;20033;-87
2022/04/26 14:46:35;;;;;;;6.85;3.30;;;;;;;19.67;29.97;101889.22;5015664;28;20068;-86
2022/04/26 14:49:00;;;;;;;7.57;3.13;;;;;;;19.44;30.20;101883.94;5015250;28;20029;-87
2022/04/26 14:51:26;;;;;;;7.20;2.60;;;;;;;19.20;30.61;101893.91;4983130;28;20481;-86
2022/04/26 14:53:52;;;;;;;8.27;2.75;;;;;;;18.84;30.72;101891.75;4982720;28;20036;-87
2022/04/26 14:56:17;;;;;;;7.72;2.92;;;;;;;18.67;31.75;101898.63;5001260;28;20397;-87
2022/04/26 14:58:43;;;;;;;5.40;2.80;;;;;;;18.51;31.66;101904.66;5015232;28;20038;-87
2022/04/26 15:01:10;;;;;;;7.07;2.70;;;;;;;18.40;32.25;101897.03;4999100;28;20473;-87
2022/04/26 15:03:36;;;;;;;6.10;2.90;;;;;;;18.26;31.28;101898.41;4999203;28;20040;-87
2022/04/26 15:06:02;;;;;;;8.75;2.75;;;;;;;18.24;32.08;101902.94;5015555;28;20561;-87
2022/04/26 15:11:12;;;;;;;5.15;2.63;;;;;;;18.23;31.28;101895.84;5001374;28;20396;-86
2022/04/26 15:16:37;;;;;;;6.00;2.60;;;;;;;18.77;32.31;101891.13;5020969;28;20045;-87
2022/04/26 15:19:06;;;;;;;8.38;2.60;;;;;;;19.02;31.72;101891.03;5020660;28;20428;-86
2022/04/26 15:21:32;;;;;;;9.35;2.90;;;;;;;19.43;31.46;101895.63;5034975;28;20033;-86
2022/04/26 15:24:01;;;;;;;4.97;2.60;;;;;;;19.82;30.37;101890.38;5023891;28;20061;-87
2022/04/26 15:26:28;;;;;;;5.90;2.33;;;;;;;20.16;30.01;101883.50;5031719;28;20036;-86
2022/04/26 15:28:55;;;;;;;4.18;2.50;;;;;;;20.55;29.63;101888.03;4966232;28;20447;-86
2022/04/26 15:31:20;;;;;;;4.30;2.28;;;;;;;20.66;29.29;101882.13;5014597;28;20405;-86
2022/04/26 15:33:47;;;;;;;6.10;2.70;;;;;;;20.51;28.06;101881.84;5014513;28;20037;-86
2022/04/26 15:36:14;;;;;;;4.38;2.70;;;;;;;20.74;28.70;101885.31;4998555;28;20034;-86
2022/04/26 15:38:40;;;;;;;3.08;2.10;;;;;;;20.94;27.13;101895.97;4998045;28;20132;-86